James M Cox Dayton International (DAY)

 

Airport Diagram
Current Weather/Forecast (VFR Conditions)
METAR KDAY 290256Z 20006KT 10SM FEW055 BKN120 24/16 A2993 RMK AO2 SLP128 T02390161 53003
TAF KDAY 282320Z 2900/2924 20006KT P6SM VCSH SCT040 BKN100 FM290600 20008KT P6SM BKN060 FM291300 22012KT P6SM VCSH BKN035 FM291500 22014G22KT P6SM VCTS BKN025CB FM292100 31012G18KT P6SM VCSH BKN040

Airport Information

All Charts
General
Chart Name View
AIRPORT DIAGRAM
TAKEOFF MINIMUMS
ALTERNATE MINIMUMS
HOT SPOT

Departures
Chart Name Download
DAYTON SEVEN
DAYTON SEVEN, CONT.1

Arrivals
Chart Name Download
DANEI THREE
KEKEE FOUR

Approaches
Chart Name Download
ILS OR LOC RWY 06L
ILS OR LOC RWY 18
ILS OR LOC RWY 24L
ILS OR LOC RWY 24R
ILS RWY 06L (CAT II - III)
RNAV (RNP) Y RWY 06L
RNAV (RNP) Y RWY 24R
RNAV (GPS) RWY 06R
RNAV (GPS) RWY 18
RNAV (GPS) RWY 24L
RNAV (GPS) RWY 36
RNAV (GPS) Z RWY 06L
RNAV (GPS) Z RWY 24R


Airport Statistics
Departures Arrivals Local
All Collected Stats since June 2016: 383 268 6
2020 Stats: 64 44 0
May Stats: 15 11 0

Inbound Traffic (Arrivals) - 0

No inbound traffic.


Outbound Traffic (Departures) - 0

No outbound traffic.


Local Traffic (Pattern) - 0

No local traffic.